createdAt,value
2023-01-05T00:02:18.800Z,99239.40
2023-01-05T00:04:54.097Z,99227.34
2023-01-05T00:07:24.274Z,99225.29
2023-01-05T00:09:54.612Z,99224.68
2023-01-05T00:12:57.578Z,99222.14
2023-01-05T00:15:51.805Z,99224.88
2023-01-05T00:18:40.370Z,99221.20
2023-01-05T00:21:33.337Z,99210.61
2023-01-05T00:24:04.295Z,99204.35
2023-01-05T00:26:34.952Z,99200.53
2023-01-05T00:29:05.034Z,99196.42
2023-01-05T00:31:35.736Z,99198.77
2023-01-05T00:34:06.025Z,99202.63
2023-01-05T00:36:36.082Z,99208.00
2023-01-05T00:39:07.965Z,99197.60
2023-01-05T00:41:38.721Z,99194.23
2023-01-05T00:44:09.590Z,99195.58
2023-01-05T00:46:40.078Z,99190.47
2023-01-05T00:49:10.359Z,99185.34
2023-01-05T00:51:40.260Z,99181.90
2023-01-05T00:54:10.812Z,99176.05
2023-01-05T00:56:41.697Z,99168.98
2023-01-05T00:59:12.328Z,99170.77
2023-01-05T01:01:45.424Z,99166.56
2023-01-05T01:04:15.824Z,99167.06
2023-01-05T01:06:47.053Z,99161.99
2023-01-05T01:09:17.469Z,99156.80
2023-01-05T01:11:47.636Z,99153.77
2023-01-05T01:14:18.535Z,99145.27
2023-01-05T01:16:49.019Z,99139.30
2023-01-05T01:19:21.295Z,99146.02
2023-01-05T01:21:52.362Z,99142.03
2023-01-05T01:24:24.072Z,99138.27
2023-01-05T01:26:54.668Z,99133.89
2023-01-05T01:29:26.339Z,99127.17
2023-01-05T01:31:56.373Z,99119.95
2023-01-05T01:34:27.049Z,99114.16
2023-01-05T01:36:58.739Z,99116.06
2023-01-05T01:39:33.139Z,99111.39
2023-01-05T01:42:14.724Z,99108.98
2023-01-05T01:45:00.304Z,99103.25
2023-01-05T01:47:44.651Z,99093.66
2023-01-05T01:50:19.081Z,99087.55
2023-01-05T01:52:52.814Z,99084.30
2023-01-05T01:55:23.495Z,99083.05
2023-01-05T01:57:54.444Z,99079.79
2023-01-05T02:00:25.234Z,99079.04
2023-01-05T02:02:56.563Z,99077.96
2023-01-05T02:05:31.546Z,99077.00
2023-01-05T02:08:01.893Z,99074.09
2023-01-05T02:10:43.622Z,99070.46
2023-01-05T02:13:31.773Z,99070.36
2023-01-05T02:16:17.707Z,99064.18
2023-01-05T02:19:07.846Z,99065.66
2023-01-05T02:21:52.497Z,99061.98
2023-01-05T02:25:10.008Z,99062.09
2023-01-05T02:27:59.292Z,99061.27
2023-01-05T02:31:00.364Z,99059.73
2023-01-05T02:34:07.203Z,99053.05
2023-01-05T02:36:43.216Z,99054.73
2023-01-05T02:39:17.481Z,99055.89
2023-01-05T02:41:54.550Z,99051.45
2023-01-05T02:44:30.170Z,99051.19
2023-01-05T02:47:06.285Z,99046.70
2023-01-05T02:49:41.102Z,99043.94
2023-01-05T02:52:13.961Z,99040.84
2023-01-05T02:54:50.902Z,99038.18
2023-01-05T02:57:46.583Z,99033.58
2023-01-05T03:00:23.257Z,99030.38
2023-01-05T03:02:56.918Z,99030.16
2023-01-05T03:05:33.010Z,99025.87
2023-01-05T03:08:24.152Z,99024.84
2023-01-05T03:11:26.301Z,99017.02
2023-01-05T03:14:04.178Z,99013.62
2023-01-05T03:16:39.336Z,99016.01
2023-01-05T03:19:30.897Z,99007.33
2023-01-05T03:22:25.286Z,99007.83
2023-01-05T03:25:15.752Z,99004.57
2023-01-05T03:28:06.017Z,99000.17
2023-01-05T03:31:04.387Z,99001.15
2023-01-05T03:34:02.406Z,98999.38
2023-01-05T03:36:39.009Z,98999.27
2023-01-05T03:39:11.614Z,98991.73
2023-01-05T03:41:42.937Z,98982.66
2023-01-05T03:44:14.059Z,98982.90
2023-01-05T03:46:45.649Z,98983.42
2023-01-05T03:49:17.272Z,98980.77
2023-01-05T03:51:47.248Z,98982.19
2023-01-05T03:54:17.633Z,98982.72
2023-01-05T03:56:49.412Z,98981.20
2023-01-05T03:59:20.982Z,98982.41
2023-01-05T04:01:51.759Z,98983.59
2023-01-05T04:04:22.820Z,98978.55
2023-01-05T04:06:53.131Z,98977.77
2023-01-05T04:09:23.994Z,98971.75
2023-01-05T04:11:54.914Z,98967.30
2023-01-05T04:14:25.379Z,98964.73
2023-01-05T04:16:56.402Z,98964.14
2023-01-05T04:19:27.129Z,98967.23
2023-01-05T04:21:58.251Z,98969.99
2023-01-05T04:24:29.060Z,98970.26
2023-01-05T04:26:59.546Z,98975.68
2023-01-05T04:29:29.912Z,98983.43
2023-01-05T04:32:01.220Z,98987.13
2023-01-05T04:34:32.142Z,98986.09
2023-01-05T04:37:02.945Z,98984.02
2023-01-05T04:39:34.468Z,98985.55
2023-01-05T04:42:05.379Z,98985.38
2023-01-05T04:44:36.504Z,98981.08
2023-01-05T04:47:07.581Z,98982.34
2023-01-05T04:49:39.918Z,98977.13
2023-01-05T04:52:11.414Z,98977.23
2023-01-05T04:54:41.435Z,98979.13
2023-01-05T04:57:12.222Z,98982.17
2023-01-05T04:59:42.858Z,98977.67
2023-01-05T05:02:13.787Z,98968.35
2023-01-05T05:04:45.382Z,98970.41
2023-01-05T05:07:16.894Z,98971.83
2023-01-05T05:09:47.438Z,98977.56
2023-01-05T05:12:20.172Z,98980.83
2023-01-05T05:14:52.930Z,98977.09
2023-01-05T05:17:23.377Z,98977.85
2023-01-05T05:19:53.867Z,98977.68
2023-01-05T05:22:25.960Z,98982.46
2023-01-05T05:24:56.132Z,98982.95
2023-01-05T05:27:26.720Z,98980.34
2023-01-05T05:29:56.819Z,98978.87
2023-01-05T05:32:27.429Z,98978.01
2023-01-05T05:34:57.994Z,98984.02
2023-01-05T05:37:28.416Z,98988.26
2023-01-05T05:39:58.802Z,98990.69
2023-01-05T05:42:28.950Z,98992.80
2023-01-05T05:44:59.245Z,98986.58
2023-01-05T05:47:29.531Z,98983.59
2023-01-05T05:50:00.223Z,98986.36
2023-01-05T05:52:30.696Z,98984.51
2023-01-05T05:55:00.801Z,98985.54
2023-01-05T05:57:31.441Z,98988.14
2023-01-05T06:00:01.438Z,98987.54
2023-01-05T06:02:31.916Z,98984.28
2023-01-05T06:05:02.602Z,98984.23
2023-01-05T06:07:32.532Z,98987.70
2023-01-05T06:10:03.324Z,98987.60
2023-01-05T06:12:34.121Z,98988.80
2023-01-05T06:15:05.255Z,98987.89
2023-01-05T06:17:35.479Z,98990.02
2023-01-05T06:20:09.108Z,98992.23
2023-01-05T06:22:39.270Z,98994.09
2023-01-05T06:25:11.415Z,98999.14
2023-01-05T06:27:41.914Z,99002.62
2023-01-05T06:30:14.142Z,99004.47
2023-01-05T06:32:44.106Z,99003.27
2023-01-05T06:35:14.447Z,99003.38
2023-01-05T06:37:45.179Z,99005.40
2023-01-05T06:40:15.975Z,99004.69
2023-01-05T06:42:46.501Z,99008.39
2023-01-05T06:45:17.726Z,99005.79
2023-01-05T06:47:48.259Z,99005.95
2023-01-05T06:50:18.942Z,99006.66
2023-01-05T06:52:49.496Z,99006.73
2023-01-05T06:55:21.521Z,99008.90
2023-01-05T06:57:57.072Z,99009.71
2023-01-05T07:00:31.351Z,99016.72
2023-01-05T07:03:01.741Z,99014.94
2023-01-05T07:05:33.021Z,99017.05
2023-01-05T07:08:03.600Z,99019.27
2023-01-05T07:10:33.861Z,99020.37
2023-01-05T07:13:04.569Z,99020.41
2023-01-05T07:15:34.755Z,99017.76
2023-01-05T07:18:05.478Z,99019.60
2023-01-05T07:20:36.145Z,99020.58
2023-01-05T07:23:06.447Z,99026.28
2023-01-05T07:25:36.690Z,99020.98
2023-01-05T07:28:07.329Z,99017.23
2023-01-05T07:30:37.682Z,99014.61
2023-01-05T07:33:07.875Z,99017.55
2023-01-05T07:35:38.668Z,99022.48
2023-01-05T07:38:08.926Z,99025.64
2023-01-05T07:40:39.258Z,99026.02
2023-01-05T07:43:09.575Z,99023.64
2023-01-05T07:45:39.870Z,99029.55
2023-01-05T07:48:10.184Z,99027.27
2023-01-05T07:50:40.698Z,99026.14
2023-01-05T07:53:11.006Z,99029.51
2023-01-05T07:55:41.585Z,99031.08
2023-01-05T07:58:12.690Z,99026.71
2023-01-05T08:00:43.110Z,99025.41
2023-01-05T08:03:14.945Z,99031.23
2023-01-05T08:05:46.051Z,99030.08
2023-01-05T08:08:22.260Z,99029.91
2023-01-05T08:10:55.335Z,99027.20
2023-01-05T08:13:39.997Z,99031.98
2023-01-05T08:16:10.818Z,99037.70
2023-01-05T08:18:41.308Z,99035.89
2023-01-05T08:21:12.025Z,99038.25
2023-01-05T08:23:42.324Z,99041.87
2023-01-05T08:26:15.332Z,99040.89
2023-01-05T08:28:46.574Z,99049.09
2023-01-05T08:31:19.268Z,99046.26
2023-01-05T08:33:50.292Z,99051.21
2023-01-05T08:36:21.249Z,99054.52
2023-01-05T08:38:52.787Z,99049.86
2023-01-05T08:41:25.179Z,99051.85
2023-01-05T08:43:57.683Z,99051.69
2023-01-05T08:46:29.598Z,99053.22
2023-01-05T08:49:01.288Z,99057.52
2023-01-05T08:51:32.255Z,99058.88
2023-01-05T08:54:03.326Z,99059.53
2023-01-05T08:56:38.597Z,99065.77
2023-01-05T08:59:13.756Z,99069.69
2023-01-05T09:01:44.321Z,99079.84
2023-01-05T09:04:15.655Z,99085.21
2023-01-05T09:06:45.852Z,99088.32
2023-01-05T09:09:16.409Z,99104.70
2023-01-05T09:11:46.608Z,99107.52
2023-01-05T09:14:17.183Z,99104.27
2023-01-05T09:19:38.844Z,99106.82
2023-01-05T09:22:09.267Z,99106.94
2023-01-05T09:24:40.390Z,99110.09
2023-01-05T09:27:11.111Z,99114.98
2023-01-05T09:29:41.607Z,99115.42
2023-01-05T09:32:12.026Z,99118.14
2023-01-05T09:34:42.590Z,99119.98
2023-01-05T09:37:12.512Z,99123.08
2023-01-05T09:39:43.243Z,99128.04
2023-01-05T09:42:17.436Z,99126.41
2023-01-05T09:44:56.927Z,99125.64
2023-01-05T09:47:33.136Z,99122.10
2023-01-05T09:50:05.789Z,99123.28
2023-01-05T09:52:38.702Z,99123.92
2023-01-05T09:55:17.395Z,99121.15
2023-01-05T09:57:53.860Z,99122.34
2023-01-05T10:00:26.956Z,99119.83
2023-01-05T10:03:01.619Z,99124.02
2023-01-05T10:05:34.494Z,99124.65
2023-01-05T10:08:08.494Z,99128.29
2023-01-05T10:10:46.116Z,99125.45
2023-01-05T10:13:26.548Z,99123.05
2023-01-05T10:15:57.267Z,99121.45
2023-01-05T10:18:28.854Z,99120.12
2023-01-05T10:21:11.344Z,99119.06
2023-01-05T10:24:13.114Z,99116.85
2023-01-05T10:27:23.525Z,99115.54
2023-01-05T10:29:46.187Z,99110.11
2023-01-05T10:32:26.292Z,99102.98
2023-01-05T10:35:02.276Z,99112.10
2023-01-05T10:37:49.519Z,99112.02
2023-01-05T10:40:32.055Z,99108.83
2023-01-05T10:43:24.329Z,99115.46
2023-01-05T10:46:28.536Z,99118.83
2023-01-05T10:48:46.078Z,99115.10
2023-01-05T10:51:16.375Z,99118.45
2023-01-05T10:53:47.330Z,99116.77
2023-01-05T10:56:25.167Z,99110.62
2023-01-05T10:59:09.232Z,99108.33
2023-01-05T11:01:45.578Z,99110.41
2023-01-05T11:04:35.891Z,99116.02
2023-01-05T11:07:08.042Z,99120.05
2023-01-05T11:09:43.517Z,99122.40
2023-01-05T11:12:19.962Z,99123.58
2023-01-05T11:14:58.315Z,99125.81
2023-01-05T11:17:30.573Z,99123.85
2023-01-05T11:20:00.900Z,99123.66
2023-01-05T11:22:34.721Z,99128.95
2023-01-05T11:25:23.465Z,99127.92
2023-01-05T11:28:12.442Z,99128.01
2023-01-05T11:30:58.859Z,99131.29
2023-01-05T11:33:30.561Z,99129.39
2023-01-05T11:36:01.544Z,99128.47
2023-01-05T11:38:32.719Z,99124.02
2023-01-05T11:41:03.541Z,99125.69
2023-01-05T11:43:34.335Z,99125.03
2023-01-05T11:46:07.215Z,99122.73
2023-01-05T11:48:37.909Z,99121.13
2023-01-05T11:51:08.654Z,99123.13
2023-01-05T11:53:40.387Z,99119.68
2023-01-05T11:56:22.079Z,99114.77
2023-01-05T11:58:54.685Z,99122.77
2023-01-05T12:01:42.334Z,99124.52
2023-01-05T12:04:40.511Z,99119.09
2023-01-05T12:07:24.444Z,99120.85
2023-01-05T12:10:01.196Z,99123.35
2023-01-05T12:12:45.657Z,99123.66
2023-01-05T12:15:37.510Z,99123.87
2023-01-05T12:18:22.807Z,99130.63
2023-01-05T12:21:05.180Z,99132.11
2023-01-05T12:23:59.540Z,99130.92
2023-01-05T12:26:34.874Z,99131.82
2023-01-05T12:36:02.203Z,99128.07
2023-01-05T12:38:44.948Z,99122.64
2023-01-05T12:41:48.921Z,99125.19
2023-01-05T12:44:49.176Z,99121.60
2023-01-05T12:47:37.545Z,99123.95
2023-01-05T12:50:22.902Z,99123.15
2023-01-05T12:53:01.135Z,99123.25
2023-01-05T12:55:38.625Z,99125.86
2023-01-05T12:58:15.507Z,99127.59
2023-01-05T13:00:48.528Z,99128.36
2023-01-05T13:03:27.180Z,99126.84
2023-01-05T13:06:03.055Z,99128.40
2023-01-05T13:08:41.270Z,99124.59
2023-01-05T13:11:22.862Z,99130.81
2023-01-05T13:13:57.143Z,99139.39
2023-01-05T13:16:33.264Z,99132.84
2023-01-05T13:19:07.621Z,99137.08
2023-01-05T13:21:40.507Z,99142.42
2023-01-05T13:24:17.547Z,99148.16
2023-01-05T13:26:47.601Z,99142.84
2023-01-05T13:29:24.671Z,99152.10
2023-01-05T13:32:14.923Z,99149.90
2023-01-05T13:35:01.214Z,99154.00
2023-01-05T13:37:52.643Z,99160.83
2023-01-05T13:41:00.564Z,99154.73
2023-01-05T13:43:45.298Z,99157.13
2023-01-05T13:46:42.499Z,99161.08
2023-01-05T13:49:44.866Z,99162.80
2023-01-05T13:52:31.431Z,99166.48
2023-01-05T13:55:04.998Z,99168.04
2023-01-05T13:57:41.384Z,99169.73
2023-01-05T14:00:25.211Z,99170.64
2023-01-05T14:03:07.139Z,99173.81
2023-01-05T14:05:49.430Z,99174.83
2023-01-05T14:08:25.657Z,99175.42
2023-01-05T14:11:19.223Z,99178.02
2023-01-05T14:13:53.319Z,99181.09
2023-01-05T14:16:49.703Z,99180.48
2023-01-05T14:19:25.714Z,99183.76
2023-01-05T14:22:24.009Z,99188.73
2023-01-05T14:24:54.998Z,99189.89
2023-01-05T14:27:26.181Z,99192.85
2023-01-05T14:30:20.067Z,99192.58
2023-01-05T14:32:55.452Z,99193.44
2023-01-05T14:35:35.688Z,99191.87
2023-01-05T14:38:17.262Z,99193.34
2023-01-05T14:40:50.918Z,99195.39
2023-01-05T14:43:38.107Z,99198.64
2023-01-05T14:46:11.740Z,99201.52
2023-01-05T14:48:44.972Z,99196.16
2023-01-05T14:51:24.294Z,99194.36
2023-01-05T14:53:57.101Z,99195.38
2023-01-05T14:56:29.601Z,99198.02
2023-01-05T14:59:13.584Z,99192.70
2023-01-05T15:01:50.476Z,99197.48
2023-01-05T15:04:28.061Z,99194.23
2023-01-05T15:07:22.850Z,99196.26
2023-01-05T15:10:24.848Z,99197.98
2023-01-05T15:13:14.645Z,99200.05
2023-01-05T15:15:55.733Z,99197.77
2023-01-05T15:18:54.395Z,99197.08
2023-01-05T15:21:46.585Z,99200.92
2023-01-05T15:24:54.006Z,99199.02
2023-01-05T15:27:57.068Z,99197.29
2023-01-05T15:30:43.767Z,99195.56
2023-01-05T15:33:19.269Z,99195.29
2023-01-05T15:35:55.506Z,99197.52
2023-01-05T15:38:28.347Z,99203.34
2023-01-05T15:41:06.869Z,99201.88
2023-01-05T15:43:39.528Z,99201.48
2023-01-05T15:46:10.734Z,99205.65
2023-01-05T15:48:43.613Z,99208.02
2023-01-05T15:51:24.411Z,99217.20
2023-01-05T15:53:58.982Z,99211.02
2023-01-05T15:56:33.518Z,99220.27
2023-01-05T15:59:18.602Z,99221.16
2023-01-05T16:01:48.902Z,99225.61
2023-01-05T16:04:19.565Z,99230.60
2023-01-05T16:06:53.154Z,99230.04
2023-01-05T16:09:27.819Z,99235.38
2023-01-05T16:12:02.923Z,99237.29
2023-01-05T16:14:46.260Z,99239.92
2023-01-05T16:17:19.659Z,99244.73
2023-01-05T16:19:56.133Z,99243.92
2023-01-05T16:22:35.491Z,99250.13
2023-01-05T16:25:12.229Z,99257.32
2023-01-05T16:27:49.491Z,99260.94
2023-01-05T16:30:31.842Z,99266.61
2023-01-05T16:33:05.154Z,99271.98
2023-01-05T16:35:42.752Z,99273.20
2023-01-05T16:38:25.968Z,99283.67
2023-01-05T16:41:06.303Z,99296.48
2023-01-05T16:43:41.419Z,99304.42
2023-01-05T16:46:30.269Z,99315.90
2023-01-05T16:49:04.139Z,99316.71
2023-01-05T16:51:43.010Z,99328.17
2023-01-05T16:54:20.811Z,99325.06
2023-01-05T16:56:58.928Z,99334.36
2023-01-05T16:59:43.595Z,99337.20
2023-01-05T17:02:48.584Z,99342.75
2023-01-05T17:05:24.619Z,99350.65
2023-01-05T17:08:03.822Z,99361.00
2023-01-05T17:10:34.501Z,99371.39
2023-01-05T17:13:08.270Z,99375.33
2023-01-05T17:15:42.991Z,99382.42
2023-01-05T17:18:17.821Z,99388.65
2023-01-05T17:20:49.036Z,99401.00
2023-01-05T17:23:28.913Z,99410.75
2023-01-05T17:26:02.537Z,99419.43
2023-01-05T17:28:33.117Z,99425.39
2023-01-05T17:31:04.055Z,99428.20
2023-01-05T17:33:34.965Z,99431.29
2023-01-05T17:36:06.466Z,99436.61
2023-01-05T17:38:37.446Z,99444.73
2023-01-05T17:41:08.146Z,99447.56
2023-01-05T17:43:38.929Z,99447.03
2023-01-05T17:46:14.836Z,99454.38
2023-01-05T17:48:45.442Z,99461.73
2023-01-05T17:51:15.993Z,99466.67
2023-01-05T17:53:46.320Z,99471.76
2023-01-05T17:56:18.689Z,99476.79
2023-01-05T17:58:51.140Z,99485.35
2023-01-05T18:01:21.630Z,99488.02
2023-01-05T18:03:52.471Z,99489.90
2023-01-05T18:06:24.056Z,99490.38
2023-01-05T18:08:54.252Z,99499.25
2023-01-05T18:11:25.357Z,99501.48
2023-01-05T18:13:56.327Z,99507.52
2023-01-05T18:16:27.203Z,99510.59
2023-01-05T18:18:58.429Z,99519.21
2023-01-05T18:21:29.828Z,99528.54
2023-01-05T18:24:00.909Z,99530.88
2023-01-05T18:26:32.251Z,99543.52
2023-01-05T18:29:02.904Z,99548.49
2023-01-05T18:31:35.989Z,99555.31
2023-01-05T18:34:10.800Z,99560.27
2023-01-05T18:36:42.446Z,99565.00
2023-01-05T18:39:14.241Z,99571.25
2023-01-05T18:41:45.074Z,99574.52
2023-01-05T18:44:16.827Z,99584.46
2023-01-05T18:46:47.483Z,99583.70
2023-01-05T18:49:18.447Z,99590.48
2023-01-05T18:51:51.709Z,99598.55
2023-01-05T18:54:24.515Z,99603.92
2023-01-05T18:56:55.626Z,99615.23
2023-01-05T18:59:26.405Z,99620.56
2023-01-05T19:01:57.458Z,99623.14
2023-01-05T19:04:29.247Z,99629.29
2023-01-05T19:07:00.514Z,99639.51
2023-01-05T19:09:31.883Z,99650.05
2023-01-05T19:12:02.569Z,99649.61
2023-01-05T19:14:34.027Z,99661.44
2023-01-05T19:17:04.631Z,99667.98
2023-01-05T19:19:36.297Z,99665.68
2023-01-05T19:22:07.408Z,99663.02
2023-01-05T19:24:38.647Z,99667.12
2023-01-05T19:27:09.913Z,99672.30
2023-01-05T19:29:41.740Z,99675.68
2023-01-05T19:32:13.283Z,99677.36
2023-01-05T19:34:43.791Z,99685.35
2023-01-05T19:37:14.429Z,99692.10
2023-01-05T19:39:47.563Z,99699.52
2023-01-05T19:42:18.243Z,99708.77
2023-01-05T19:44:50.091Z,99710.89
2023-01-05T19:47:21.824Z,99720.17
2023-01-05T19:49:57.524Z,99726.48
2023-01-05T19:52:30.475Z,99732.67
2023-01-05T19:55:02.362Z,99737.31
2023-01-05T19:57:33.082Z,99746.80
2023-01-05T20:00:07.643Z,99762.56
2023-01-05T20:02:43.193Z,99763.78
2023-01-05T20:05:15.107Z,99772.42
2023-01-05T20:07:47.162Z,99782.88
2023-01-05T20:10:19.883Z,99787.66
2023-01-05T20:12:53.728Z,99795.56
2023-01-05T20:15:25.435Z,99803.75
2023-01-05T20:17:57.359Z,99806.59
2023-01-05T20:20:29.044Z,99814.97
2023-01-05T20:23:02.741Z,99821.57
2023-01-05T20:25:37.418Z,99825.83
2023-01-05T20:28:14.840Z,99836.38
2023-01-05T20:30:47.312Z,99839.48
2023-01-05T20:33:20.108Z,99844.48
2023-01-05T20:35:52.066Z,99858.75
2023-01-05T20:38:24.136Z,99864.42
2023-01-05T20:40:54.470Z,99870.44
2023-01-05T20:43:26.355Z,99873.45
2023-01-05T20:45:58.636Z,99883.63
2023-01-05T20:48:32.242Z,99887.77
2023-01-05T20:51:05.886Z,99893.98
2023-01-05T20:53:37.711Z,99906.06
2023-01-05T20:56:12.178Z,99913.81
2023-01-05T20:58:45.087Z,99924.21
2023-01-05T21:01:17.107Z,99933.37
2023-01-05T21:03:48.889Z,99940.34
2023-01-05T21:06:20.695Z,99953.55
2023-01-05T21:08:52.374Z,99960.95
2023-01-05T21:11:25.555Z,99964.96
2023-01-05T21:13:57.836Z,99971.73
2023-01-05T21:16:29.999Z,99976.38
2023-01-05T21:19:01.493Z,99985.63
2023-01-05T21:21:33.132Z,99991.48
2023-01-05T21:24:07.384Z,99995.58
2023-01-05T21:26:37.749Z,100010.75
2023-01-05T21:29:09.555Z,100014.90
2023-01-05T21:31:41.480Z,100017.59
2023-01-05T21:34:12.676Z,100021.33
2023-01-05T21:36:45.487Z,100030.57
2023-01-05T21:39:20.157Z,100036.77
2023-01-05T21:42:09.859Z,100040.48
2023-01-05T21:44:41.032Z,100049.85
2023-01-05T21:47:12.540Z,100060.32
2023-01-05T21:49:43.980Z,100069.84
2023-01-05T21:52:32.194Z,100073.67
2023-01-05T21:55:19.825Z,100087.04
2023-01-05T21:57:50.363Z,100096.34
2023-01-05T22:00:21.188Z,100105.43
2023-01-05T22:02:51.667Z,100111.92
2023-01-05T22:05:22.679Z,100119.57
2023-01-05T22:07:52.996Z,100124.54
2023-01-05T22:10:23.494Z,100135.70
2023-01-05T22:12:55.687Z,100148.80
2023-01-05T22:15:26.675Z,100155.90
2023-01-05T22:17:57.178Z,100161.39
2023-01-05T22:20:27.756Z,100168.69
2023-01-05T22:22:58.439Z,100177.05
2023-01-05T22:25:28.879Z,100181.50
2023-01-05T22:27:59.474Z,100185.41
2023-01-05T22:30:29.755Z,100189.98
2023-01-05T22:32:59.957Z,100195.18
2023-01-05T22:35:30.315Z,100197.42
2023-01-05T22:38:01.137Z,100202.45
2023-01-05T22:40:31.477Z,100212.95
2023-01-05T22:43:01.599Z,100212.41
2023-01-05T22:45:33.625Z,100217.04
2023-01-05T22:48:04.693Z,100220.35
2023-01-05T22:50:35.010Z,100227.81
2023-01-05T22:53:05.952Z,100233.95
2023-01-05T22:55:36.025Z,100245.35
2023-01-05T22:58:06.293Z,100252.70
2023-01-05T23:00:36.982Z,100259.70
2023-01-05T23:03:07.706Z,100263.31
2023-01-05T23:05:39.882Z,100270.65
2023-01-05T23:08:10.780Z,100275.88
2023-01-05T23:10:41.707Z,100284.00
2023-01-05T23:13:11.962Z,100299.30
2023-01-05T23:15:42.047Z,100311.21
2023-01-05T23:18:12.767Z,100317.35
2023-01-05T23:20:43.197Z,100323.57
2023-01-05T23:23:13.255Z,100333.11
2023-01-05T23:25:45.248Z,100337.77
2023-01-05T23:28:17.735Z,100341.90
2023-01-05T23:30:50.300Z,100344.10
2023-01-05T23:33:22.686Z,100343.82
2023-01-05T23:35:54.512Z,100348.13
2023-01-05T23:38:26.172Z,100355.84
2023-01-05T23:40:57.844Z,100356.63
2023-01-05T23:43:29.547Z,100362.60
2023-01-05T23:46:05.231Z,100373.84
2023-01-05T23:48:36.838Z,100380.06
2023-01-05T23:51:13.284Z,100383.67
2023-01-05T23:53:45.143Z,100386.77
2023-01-05T23:56:17.064Z,100393.83
2023-01-05T23:58:47.240Z,100399.38
